Time,TemperatureF,DewpointF,PressureIn,WindDirection,WindDirectionDegrees,WindSpeedMPH,WindSpeedGustMPH,Humidity,HourlyPrecipIn,Conditions,Clouds,dailyrainin,SolarRadiationWatts/m^2,SoftwareType,DateUTC
2013-07-07 00:11:00,76.0,39.0,-100.00,NNE,28,2.0,14.0,26,0.00,,,0.00,0.000000,,2013-07-07 07:11:00,
2013-07-07 00:22:00,76.0,39.0,-100.00,NNE,28,2.0,14.0,26,0.00,,,0.00,0.000000,,2013-07-07 07:22:00,
2013-07-07 00:33:00,76.0,39.0,-100.00,NNE,28,2.0,14.0,26,0.00,,,0.00,0.000000,,2013-07-07 07:33:00,
2013-07-07 00:44:00,76.0,39.0,-100.00,NNE,28,2.0,14.0,26,0.00,,,0.00,0.000000,,2013-07-07 07:44:00,
2013-07-07 01:12:00,74.0,37.0,-100.00,East,90,2.0,11.0,26,0.00,,,0.00,0.000000,,2013-07-07 08:12:00,
2013-07-07 01:22:00,74.0,37.0,-100.00,East,90,2.0,11.0,26,0.00,,,0.00,0.000000,,2013-07-07 08:22:00,
2013-07-07 01:33:00,74.0,37.0,-100.00,East,90,2.0,11.0,26,0.00,,,0.00,0.000000,,2013-07-07 08:33:00,
2013-07-07 01:43:00,74.0,37.0,-100.00,East,90,2.0,11.0,26,0.00,,,0.00,0.000000,,2013-07-07 08:43:00,
2013-07-07 02:12:00,69.0,35.0,-100.00,SSE,156,0.0,3.0,28,0.00,,,0.00,0.000000,,2013-07-07 09:12:00,
2013-07-07 02:22:00,69.0,35.0,-100.00,SSE,156,0.0,3.0,28,0.00,,,0.00,0.000000,,2013-07-07 09:22:00,
2013-07-07 02:34:00,69.0,35.0,-100.00,SSE,156,0.0,3.0,28,0.00,,,0.00,0.000000,,2013-07-07 09:34:00,
2013-07-07 02:43:00,69.0,35.0,-100.00,SSE,156,0.0,3.0,28,0.00,,,0.00,0.000000,,2013-07-07 09:43:00,
2013-07-07 03:12:00,68.0,35.0,-100.00,South,173,0.0,9.0,29,0.00,,,0.00,0.000000,,2013-07-07 10:12:00,
2013-07-07 03:22:00,68.0,35.0,-100.00,South,173,0.0,9.0,29,0.00,,,0.00,0.000000,,2013-07-07 10:22:00,
2013-07-07 03:32:00,68.0,35.0,-100.00,South,173,0.0,9.0,29,0.00,,,0.00,0.000000,,2013-07-07 10:32:00,
2013-07-07 03:43:00,68.0,35.0,-100.00,South,173,0.0,9.0,29,0.00,,,0.00,0.000000,,2013-07-07 10:43:00,
2013-07-07 04:11:00,61.0,32.0,-100.00,South,184,0.0,0.0,33,0.00,,,0.00,0.000000,,2013-07-07 11:11:00,
2013-07-07 04:23:00,61.0,32.0,-100.00,South,184,0.0,0.0,33,0.00,,,0.00,0.000000,,2013-07-07 11:23:00,
2013-07-07 05:12:00,61.0,33.0,-100.00,WSW,258,0.0,4.0,35,0.00,,,0.00,0.000000,,2013-07-07 12:12:00,
2013-07-07 05:22:00,61.0,33.0,-100.00,WSW,258,0.0,4.0,35,0.00,,,0.00,0.000000,,2013-07-07 12:22:00,
2013-07-07 05:34:00,61.0,33.0,-100.00,WSW,258,0.0,4.0,35,0.00,,,0.00,0.000000,,2013-07-07 12:34:00,
2013-07-07 05:43:00,61.0,33.0,-100.00,WSW,258,0.0,4.0,35,0.00,,,0.00,0.000000,,2013-07-07 12:43:00,
2013-07-07 06:22:00,61.0,32.0,-100.00,WSW,237,0.0,5.0,33,0.00,,,0.00,1.000000,,2013-07-07 13:22:00,
2013-07-07 06:34:00,61.0,32.0,-100.00,WSW,237,0.0,5.0,33,0.00,,,0.00,1.000000,,2013-07-07 13:34:00,
2013-07-07 06:43:00,61.0,32.0,-100.00,WSW,237,0.0,5.0,33,0.00,,,0.00,1.000000,,2013-07-07 13:43:00,
2013-07-07 08:11:00,75.0,35.0,-100.00,West,262,3.0,7.0,23,0.00,,,0.00,302.000000,,2013-07-07 15:11:00,
2013-07-07 08:22:00,75.0,35.0,-100.00,West,262,3.0,7.0,23,0.00,,,0.00,302.000000,,2013-07-07 15:22:00,
2013-07-07 08:33:00,75.0,35.0,-100.00,West,262,3.0,7.0,23,0.00,,,0.00,302.000000,,2013-07-07 15:33:00,
2013-07-07 08:43:00,75.0,35.0,-100.00,West,262,3.0,7.0,23,0.00,,,0.00,302.000000,,2013-07-07 15:43:00,
2013-07-07 09:33:00,84.0,37.0,-100.00,NNE,12,1.0,7.0,19,0.00,,,0.00,542.000000,,2013-07-07 16:33:00,
2013-07-07 09:43:00,84.0,37.0,-100.00,NNE,12,1.0,7.0,19,0.00,,,0.00,542.000000,,2013-07-07 16:43:00,
2013-07-07 10:12:00,86.0,36.0,-100.00,NE,44,3.0,8.0,17,0.00,,,0.00,772.000000,,2013-07-07 17:12:00,
2013-07-07 10:22:00,86.0,36.0,-100.00,NE,44,3.0,8.0,17,0.00,,,0.00,772.000000,,2013-07-07 17:22:00,
2013-07-07 10:34:00,86.0,36.0,-100.00,NE,44,3.0,8.0,17,0.00,,,0.00,772.000000,,2013-07-07 17:34:00,
2013-07-07 10:43:00,86.0,36.0,-100.00,NE,44,3.0,8.0,17,0.00,,,0.00,772.000000,,2013-07-07 17:43:00,
2013-07-07 11:11:00,86.0,38.0,-100.00,NE,43,5.0,11.0,18,0.00,,,0.00,971.000000,,2013-07-07 18:11:00,
2013-07-07 11:22:00,86.0,38.0,-100.00,NE,43,5.0,11.0,18,0.00,,,0.00,971.000000,,2013-07-07 18:22:00,
2013-07-07 11:33:00,86.0,38.0,-100.00,NE,43,5.0,11.0,18,0.00,,,0.00,971.000000,,2013-07-07 18:33:00,
2013-07-07 11:43:00,86.0,38.0,-100.00,NE,43,5.0,11.0,18,0.00,,,0.00,971.000000,,2013-07-07 18:43:00,
2013-07-07 12:11:00,88.0,38.0,-100.00,NE,38,6.0,15.0,17,0.00,,,0.00,1117.000000,,2013-07-07 19:11:00,
2013-07-07 12:22:00,88.0,38.0,-100.00,NE,38,6.0,15.0,17,0.00,,,0.00,1117.000000,,2013-07-07 19:22:00,
2013-07-07 12:33:00,88.0,38.0,-100.00,NE,38,6.0,15.0,17,0.00,,,0.00,1117.000000,,2013-07-07 19:33:00,
2013-07-07 12:43:00,88.0,38.0,-100.00,NE,38,6.0,15.0,17,0.00,,,0.00,1117.000000,,2013-07-07 19:43:00,
2013-07-07 13:11:00,91.0,39.0,-100.00,NE,55,5.0,16.0,16,0.00,,,0.00,1196.000000,,2013-07-07 20:11:00,
2013-07-07 13:22:00,91.0,39.0,-100.00,NE,55,5.0,16.0,16,0.00,,,0.00,1196.000000,,2013-07-07 20:22:00,
2013-07-07 13:34:00,91.0,39.0,-100.00,NE,55,5.0,16.0,16,0.00,,,0.00,1196.000000,,2013-07-07 20:34:00,
2013-07-07 13:42:00,91.0,39.0,-100.00,NE,55,5.0,16.0,16,0.00,,,0.00,1196.000000,,2013-07-07 20:42:00,
2013-07-07 14:11:00,93.0,38.0,-100.00,North,358,7.0,15.0,15,0.00,,,0.00,1215.000000,,2013-07-07 21:11:00,
2013-07-07 14:22:00,93.0,38.0,-100.00,North,358,7.0,15.0,15,0.00,,,0.00,1215.000000,,2013-07-07 21:22:00,
2013-07-07 14:33:00,93.0,38.0,-100.00,North,358,7.0,15.0,15,0.00,,,0.00,1215.000000,,2013-07-07 21:33:00,
2013-07-07 14:43:00,93.0,38.0,-100.00,North,358,7.0,15.0,15,0.00,,,0.00,1215.000000,,2013-07-07 21:43:00,
2013-07-07 15:11:00,97.0,40.0,-100.00,North,3,8.0,14.0,14,0.00,,,0.00,1180.000000,,2013-07-07 22:11:00,
2013-07-07 15:22:00,97.0,40.0,-100.00,North,3,8.0,14.0,14,0.00,,,0.00,1180.000000,,2013-07-07 22:22:00,
2013-07-07 15:33:00,97.0,40.0,-100.00,North,3,8.0,14.0,14,0.00,,,0.00,1180.000000,,2013-07-07 22:33:00,
2013-07-07 15:43:00,97.0,40.0,-100.00,North,3,8.0,14.0,14,0.00,,,0.00,1180.000000,,2013-07-07 22:43:00,
2013-07-07 16:12:00,95.0,38.0,-100.00,North,3,7.0,19.0,14,0.00,,,0.00,912.000000,,2013-07-07 23:12:00,
2013-07-07 16:22:00,95.0,38.0,-100.00,North,3,7.0,19.0,14,0.00,,,0.00,912.000000,,2013-07-07 23:22:00,
2013-07-07 16:33:00,95.0,38.0,-100.00,North,3,7.0,19.0,14,0.00,,,0.00,912.000000,,2013-07-07 23:33:00,
2013-07-07 16:43:00,95.0,38.0,-100.00,North,3,7.0,19.0,14,0.00,,,0.00,912.000000,,2013-07-07 23:43:00,
2013-07-07 17:22:00,98.0,41.0,-100.00,WNW,290,13.0,20.0,14,0.00,,,0.00,989.000000,,2013-07-08 00:22:00,
2013-07-07 17:33:00,98.0,41.0,-100.00,WNW,290,13.0,20.0,14,0.00,,,0.00,989.000000,,2013-07-08 00:33:00,
2013-07-07 17:43:00,98.0,41.0,-100.00,WNW,290,13.0,20.0,14,0.00,,,0.00,989.000000,,2013-07-08 00:43:00,
2013-07-07 18:11:00,94.0,39.0,-100.00,WNW,282,18.0,29.0,15,0.00,,,0.00,683.000000,,2013-07-08 01:11:00,
2013-07-07 18:21:00,94.0,39.0,-100.00,WNW,282,18.0,29.0,15,0.00,,,0.00,683.000000,,2013-07-08 01:21:00,
2013-07-07 18:32:00,94.0,39.0,-100.00,WNW,282,18.0,29.0,15,0.00,,,0.00,683.000000,,2013-07-08 01:32:00,
2013-07-07 18:42:00,94.0,39.0,-100.00,WNW,282,18.0,29.0,15,0.00,,,0.00,683.000000,,2013-07-08 01:42:00,
2013-07-07 19:11:00,88.0,41.0,-100.00,WNW,289,19.0,29.0,19,0.00,,,0.00,286.000000,,2013-07-08 02:11:00,
2013-07-07 19:22:00,88.0,41.0,-100.00,WNW,289,19.0,29.0,19,0.00,,,0.00,286.000000,,2013-07-08 02:22:00,
2013-07-07 19:33:00,88.0,41.0,-100.00,WNW,289,19.0,29.0,19,0.00,,,0.00,286.000000,,2013-07-08 02:33:00,
2013-07-07 19:42:00,88.0,41.0,-100.00,WNW,289,19.0,29.0,19,0.00,,,0.00,286.000000,,2013-07-08 02:42:00,
2013-07-07 20:12:00,86.0,40.0,-100.00,West,275,13.0,24.0,20,0.00,,,0.00,36.000000,,2013-07-08 03:12:00,
2013-07-07 20:22:00,86.0,40.0,-100.00,West,275,13.0,24.0,20,0.00,,,0.00,36.000000,,2013-07-08 03:22:00,
2013-07-07 20:34:00,86.0,40.0,-100.00,West,275,13.0,24.0,20,0.00,,,0.00,36.000000,,2013-07-08 03:34:00,
2013-07-07 20:42:00,86.0,40.0,-100.00,West,275,13.0,24.0,20,0.00,,,0.00,36.000000,,2013-07-08 03:42:00,
2013-07-07 21:11:00,81.0,39.0,-100.00,West,279,12.0,23.0,22,0.00,,,0.00,7.000000,,2013-07-08 04:11:00,
2013-07-07 21:22:00,81.0,39.0,-100.00,West,279,12.0,23.0,22,0.00,,,0.00,7.000000,,2013-07-08 04:22:00,
2013-07-07 21:33:00,81.0,39.0,-100.00,West,279,12.0,23.0,22,0.00,,,0.00,7.000000,,2013-07-08 04:33:00,
2013-07-07 21:42:00,81.0,39.0,-100.00,West,279,12.0,23.0,22,0.00,,,0.00,7.000000,,2013-07-08 04:42:00,
2013-07-07 22:11:00,78.0,37.0,-100.00,WNW,297,11.0,19.0,23,0.00,,,0.00,0.000000,,2013-07-08 05:11:00,
2013-07-07 22:22:00,78.0,37.0,-100.00,WNW,297,11.0,19.0,23,0.00,,,0.00,0.000000,,2013-07-08 05:22:00,
2013-07-07 22:33:00,78.0,37.0,-100.00,WNW,297,11.0,19.0,23,0.00,,,0.00,0.000000,,2013-07-08 05:33:00,
2013-07-07 22:43:00,78.0,37.0,-100.00,WNW,297,11.0,19.0,23,0.00,,,0.00,0.000000,,2013-07-08 05:43:00,
2013-07-07 23:11:00,75.0,38.0,-100.00,WNW,284,6.0,20.0,26,0.00,,,0.00,0.000000,,2013-07-08 06:11:00,
2013-07-07 23:22:00,75.0,38.0,-100.00,WNW,284,6.0,20.0,26,0.00,,,0.00,0.000000,,2013-07-08 06:22:00,
2013-07-07 23:33:00,75.0,38.0,-100.00,WNW,284,6.0,20.0,26,0.00,,,0.00,0.000000,,2013-07-08 06:33:00,
2013-07-07 23:42:00,75.0,38.0,-100.00,WNW,284,6.0,20.0,26,0.00,,,0.00,0.000000,,2013-07-08 06:42:00,